createdAt,value
2022-09-06T00:01:58.746Z,8.82
2022-09-06T00:04:25.873Z,8.75
2022-09-06T00:06:53.050Z,7.80
2022-09-06T00:09:20.131Z,8.23
2022-09-06T00:11:47.226Z,9.43
2022-09-06T00:14:14.299Z,8.77
2022-09-06T00:16:41.467Z,9.10
2022-09-06T00:19:08.708Z,9.25
2022-09-06T00:21:35.982Z,8.95
2022-09-06T00:24:03.930Z,8.93
2022-09-06T00:26:31.074Z,9.07
2022-09-06T00:28:58.307Z,9.32
2022-09-06T00:31:26.351Z,8.85
2022-09-06T00:33:53.450Z,9.55
2022-09-06T00:36:21.088Z,9.15
2022-09-06T00:38:48.203Z,9.05
2022-09-06T00:41:16.425Z,9.45
2022-09-06T00:43:43.841Z,10.55
2022-09-06T00:46:12.745Z,10.35
2022-09-06T00:48:40.298Z,10.43
2022-09-06T00:51:09.080Z,9.05
2022-09-06T00:53:36.160Z,9.30
2022-09-06T00:56:03.533Z,9.65
2022-09-06T00:58:30.699Z,9.65
2022-09-06T01:00:57.807Z,10.02
2022-09-06T01:03:25.848Z,9.52
2022-09-06T01:06:01.663Z,9.23
2022-09-06T01:08:31.464Z,9.70
2022-09-06T01:11:07.401Z,9.95
2022-09-06T01:13:39.765Z,9.32
2022-09-06T01:16:27.407Z,9.55
2022-09-06T01:19:18.693Z,10.05
2022-09-06T01:21:48.811Z,9.40
2022-09-06T01:24:15.930Z,9.05
2022-09-06T01:27:00.068Z,9.25
2022-09-06T01:29:27.286Z,9.75
2022-09-06T01:32:18.398Z,9.23
2022-09-06T01:34:48.067Z,10.20
2022-09-06T01:37:17.015Z,10.35
2022-09-06T01:39:44.124Z,10.30
2022-09-06T01:42:17.334Z,10.15
2022-09-06T01:44:46.308Z,10.95
2022-09-06T01:47:16.487Z,10.95
2022-09-06T01:49:50.472Z,10.50
2022-09-06T01:52:17.640Z,9.60
2022-09-06T01:54:49.359Z,10.02
2022-09-06T01:57:37.059Z,11.32
2022-09-06T02:00:11.657Z,9.63
2022-09-06T02:02:54.271Z,11.48
2022-09-06T02:05:24.788Z,10.25
2022-09-06T02:07:55.012Z,10.52
2022-09-06T02:10:32.150Z,12.38
2022-09-06T02:13:01.358Z,11.85
2022-09-06T02:15:31.554Z,11.35
2022-09-06T02:18:04.216Z,13.27
2022-09-06T02:20:32.715Z,11.95
2022-09-06T02:23:01.981Z,11.32
2022-09-06T02:25:33.438Z,9.85
2022-09-06T02:28:00.689Z,10.27
2022-09-06T02:30:27.931Z,10.80
2022-09-06T02:33:04.059Z,11.02
2022-09-06T02:35:31.291Z,10.15
2022-09-06T02:37:58.389Z,11.02
2022-09-06T02:40:25.560Z,10.93
2022-09-06T02:42:54.150Z,11.27
2022-09-06T02:45:21.399Z,10.40
2022-09-06T02:47:48.585Z,10.18
2022-09-06T02:50:15.755Z,10.50
2022-09-06T02:52:42.953Z,9.90
2022-09-06T02:55:11.227Z,10.38
2022-09-06T02:57:38.392Z,10.43
2022-09-06T03:00:05.778Z,10.63
2022-09-06T03:02:32.946Z,10.77
2022-09-06T03:05:00.093Z,11.18
2022-09-06T03:07:27.177Z,11.63
2022-09-06T03:09:54.253Z,11.70
2022-09-06T03:12:21.378Z,10.93
2022-09-06T03:14:51.938Z,11.98
2022-09-06T03:17:21.469Z,11.73
2022-09-06T03:19:48.844Z,11.98
2022-09-06T03:22:16.041Z,11.00
2022-09-06T03:24:43.161Z,11.93
2022-09-06T03:27:10.282Z,12.25
2022-09-06T03:29:37.376Z,11.30
2022-09-06T03:32:04.518Z,10.32
2022-09-06T03:34:31.708Z,11.50
2022-09-06T03:36:58.957Z,11.18
2022-09-06T03:39:26.153Z,11.73
2022-09-06T03:41:53.490Z,10.82
2022-09-06T03:44:20.546Z,10.65
2022-09-06T03:46:47.679Z,10.60
2022-09-06T03:49:14.775Z,10.93
2022-09-06T03:51:41.955Z,12.40
2022-09-06T03:54:09.087Z,11.60
2022-09-06T03:56:36.191Z,11.15
2022-09-06T03:59:03.498Z,12.10
2022-09-06T04:01:30.749Z,11.38
2022-09-06T04:03:57.923Z,11.52
2022-09-06T04:06:25.118Z,11.77
2022-09-06T04:08:52.190Z,12.05
2022-09-06T04:11:19.337Z,11.75
2022-09-06T04:13:46.465Z,12.63
2022-09-06T04:16:13.665Z,14.98
2022-09-06T04:18:40.780Z,13.27
2022-09-06T04:21:07.878Z,15.48
2022-09-06T04:23:39.244Z,14.30
2022-09-06T04:26:07.315Z,13.98
2022-09-06T04:28:34.462Z,13.32
2022-09-06T04:31:04.927Z,12.57
2022-09-06T04:33:33.436Z,12.98
2022-09-06T04:36:01.580Z,13.23
2022-09-06T04:38:29.677Z,13.55
2022-09-06T04:40:57.105Z,11.75
2022-09-06T04:43:24.501Z,11.60
2022-09-06T04:45:51.819Z,13.80
2022-09-06T04:48:19.159Z,12.60
2022-09-06T04:50:46.294Z,11.43
2022-09-06T04:53:13.412Z,14.05
2022-09-06T04:55:40.580Z,13.15
2022-09-06T04:58:07.683Z,11.77
2022-09-06T05:00:35.801Z,11.73
2022-09-06T05:03:02.922Z,12.48
2022-09-06T05:05:30.066Z,13.25
2022-09-06T05:07:57.450Z,13.60
2022-09-06T05:10:24.929Z,12.02
2022-09-06T05:12:52.931Z,12.90
2022-09-06T05:15:20.969Z,12.15
2022-09-06T05:17:48.084Z,13.73
2022-09-06T05:20:15.859Z,12.52
2022-09-06T05:22:43.061Z,12.25
2022-09-06T05:25:10.708Z,13.52
2022-09-06T05:27:37.964Z,12.73
2022-09-06T05:30:05.280Z,12.50
2022-09-06T05:32:32.488Z,12.10
2022-09-06T05:34:59.686Z,10.75
2022-09-06T05:37:27.858Z,10.48
2022-09-06T05:39:55.028Z,11.63
2022-09-06T05:42:22.183Z,11.65
2022-09-06T05:44:49.303Z,11.80
2022-09-06T05:47:17.392Z,12.02
2022-09-06T05:49:44.488Z,12.60
2022-09-06T05:52:11.610Z,11.93
2022-09-06T05:54:38.866Z,10.40
2022-09-06T05:57:06.020Z,8.95
2022-09-06T05:59:33.129Z,10.40
2022-09-06T06:02:03.224Z,9.25
2022-09-06T06:04:32.514Z,9.98
2022-09-06T06:06:59.597Z,8.50
2022-09-06T06:09:26.725Z,8.20
2022-09-06T06:11:53.916Z,8.38
2022-09-06T06:14:21.128Z,8.80
2022-09-06T06:16:48.251Z,8.80
2022-09-06T06:19:15.526Z,8.85
2022-09-06T06:21:43.895Z,9.00
2022-09-06T06:24:11.032Z,8.73
2022-09-06T06:26:38.548Z,8.20
2022-09-06T06:29:08.234Z,9.93
2022-09-06T06:31:35.851Z,11.88
2022-09-06T06:34:04.046Z,12.30
2022-09-06T06:36:33.677Z,19.67
2022-09-06T06:39:01.547Z,28.42
2022-09-06T06:41:30.886Z,19.38
2022-09-06T06:43:59.649Z,14.75
2022-09-06T06:46:28.386Z,7.43
2022-09-06T06:48:55.742Z,7.60
2022-09-06T06:51:23.967Z,7.28
2022-09-06T06:53:52.623Z,6.18
2022-09-06T06:56:20.916Z,7.80
2022-09-06T06:58:50.051Z,9.00
2022-09-06T07:01:18.022Z,12.27
2022-09-06T07:03:45.489Z,11.77
2022-09-06T07:06:13.050Z,8.68
2022-09-06T07:08:40.827Z,8.15
2022-09-06T07:11:09.949Z,8.40
2022-09-06T07:13:38.328Z,6.80
2022-09-06T07:16:20.008Z,6.18
2022-09-06T07:18:47.895Z,6.30
2022-09-06T07:24:10.729Z,7.68
2022-09-06T07:26:39.170Z,8.25
2022-09-06T07:29:08.537Z,7.40
2022-09-06T07:34:25.236Z,7.55
2022-09-06T07:36:56.549Z,7.00
2022-09-06T07:39:23.765Z,7.55
2022-09-06T07:41:51.074Z,6.65
2022-09-06T07:44:18.282Z,6.90
2022-09-06T07:46:45.753Z,6.72
2022-09-06T07:49:12.933Z,7.05
2022-09-06T07:51:40.066Z,5.65
2022-09-06T07:54:29.431Z,5.10
2022-09-06T07:56:54.996Z,6.13
2022-09-06T07:59:22.096Z,5.35
2022-09-06T08:01:50.076Z,5.78
2022-09-06T08:04:17.261Z,6.75
2022-09-06T08:09:38.135Z,6.65
2022-09-06T08:12:08.709Z,6.82
2022-09-06T08:14:36.332Z,7.45
2022-09-06T08:17:04.333Z,6.50
2022-09-06T08:19:31.670Z,9.18
2022-09-06T08:21:58.903Z,9.50
2022-09-06T08:24:26.570Z,8.65
2022-09-06T08:26:53.739Z,8.07
2022-09-06T08:29:21.103Z,7.38
2022-09-06T08:31:51.075Z,6.80
2022-09-06T08:34:18.511Z,6.43
2022-09-06T08:36:46.102Z,7.15
2022-09-06T08:39:13.281Z,6.15
2022-09-06T08:41:53.678Z,6.78
2022-09-06T08:47:08.135Z,7.10
2022-09-06T08:49:40.424Z,6.45
2022-09-06T08:52:07.555Z,6.80
2022-09-06T08:54:43.643Z,6.85
2022-09-06T08:57:13.857Z,7.15
2022-09-06T08:59:43.235Z,7.50
2022-09-06T09:02:12.698Z,7.43
2022-09-06T09:04:43.237Z,8.68
2022-09-06T09:07:22.154Z,7.60
2022-09-06T09:09:50.219Z,7.65
2022-09-06T09:12:18.500Z,7.15
2022-09-06T09:14:48.411Z,6.63
2022-09-06T09:17:23.272Z,5.97
2022-09-06T09:19:50.559Z,4.88
2022-09-06T09:22:19.305Z,5.55
2022-09-06T09:24:49.415Z,5.53
2022-09-06T09:27:18.972Z,4.63
2022-09-06T09:32:45.927Z,5.88
2022-09-06T09:35:21.271Z,3.47
2022-09-06T09:37:51.060Z,2.60
2022-09-06T09:40:35.255Z,2.60
2022-09-06T09:43:16.638Z,2.83
2022-09-06T09:46:04.616Z,2.17
2022-09-06T09:48:31.888Z,4.60
2022-09-06T09:51:23.949Z,5.10
2022-09-06T09:53:55.209Z,6.13
2022-09-06T09:56:33.311Z,6.07
2022-09-06T09:59:00.952Z,5.00
2022-09-06T10:01:30.274Z,5.60
2022-09-06T10:09:37.011Z,6.63
2022-09-06T10:12:04.902Z,8.70
2022-09-06T10:14:52.448Z,7.88
2022-09-06T10:17:21.474Z,6.75
2022-09-06T10:19:48.986Z,7.40
2022-09-06T10:22:29.778Z,7.32
2022-09-06T10:25:15.769Z,8.35
2022-09-06T10:28:10.419Z,7.10
2022-09-06T10:30:41.837Z,5.90
2022-09-06T10:33:18.570Z,5.90
2022-09-06T10:35:45.791Z,6.15
2022-09-06T10:38:32.393Z,6.47
2022-09-06T10:41:18.469Z,6.18
2022-09-06T10:43:57.272Z,7.22
2022-09-06T10:46:26.664Z,6.38
2022-09-06T10:48:54.302Z,6.57
2022-09-06T10:51:44.092Z,7.85
2022-09-06T10:54:12.731Z,8.30
2022-09-06T10:56:45.461Z,6.75
2022-09-06T10:59:38.194Z,6.80
2022-09-06T11:02:15.346Z,5.80
2022-09-06T11:07:34.597Z,5.70
2022-09-06T11:10:05.082Z,5.75
2022-09-06T11:12:42.816Z,3.83
2022-09-06T11:15:12.461Z,4.80
2022-09-06T11:17:44.174Z,4.00
2022-09-06T11:20:14.425Z,4.68
2022-09-06T11:22:59.481Z,3.95
2022-09-06T11:25:27.467Z,4.65
2022-09-06T11:27:58.220Z,3.63
2022-09-06T11:30:26.661Z,3.10
2022-09-06T11:33:06.263Z,3.17
2022-09-06T11:35:34.917Z,3.35
2022-09-06T11:38:03.630Z,3.13
2022-09-06T11:40:37.470Z,2.90
2022-09-06T11:43:04.616Z,2.72
2022-09-06T11:45:44.113Z,2.92
2022-09-06T11:48:23.532Z,2.58
2022-09-06T11:51:00.022Z,2.50
2022-09-06T11:53:28.764Z,2.75
2022-09-06T11:55:59.125Z,2.25
2022-09-06T11:58:45.040Z,2.15
2022-09-06T12:01:16.655Z,2.63
2022-09-06T12:06:32.973Z,2.28
2022-09-06T12:09:00.881Z,2.28
2022-09-06T12:11:43.000Z,2.40
2022-09-06T12:14:22.339Z,2.17
2022-09-06T12:16:58.779Z,2.15
2022-09-06T12:19:44.550Z,2.20
2022-09-06T12:22:35.779Z,2.00
2022-09-06T12:25:08.250Z,1.90
2022-09-06T12:27:40.872Z,2.08
2022-09-06T12:30:20.441Z,2.08
2022-09-06T12:32:48.735Z,1.80
2022-09-06T12:38:24.091Z,1.90
2022-09-06T12:40:59.143Z,1.92
2022-09-06T12:43:27.163Z,2.42
2022-09-06T12:45:54.423Z,2.30
2022-09-06T12:48:35.445Z,1.95
2022-09-06T12:51:07.069Z,2.05
2022-09-06T12:53:39.099Z,2.50
2022-09-06T12:56:07.324Z,2.00
2022-09-06T12:58:34.788Z,2.15
2022-09-06T13:01:05.158Z,2.10
2022-09-06T13:03:41.524Z,2.33
2022-09-06T13:06:09.000Z,2.00
2022-09-06T13:08:45.631Z,2.15
2022-09-06T13:11:14.731Z,2.25
2022-09-06T13:13:49.121Z,2.10
2022-09-06T13:16:23.443Z,2.30
2022-09-06T13:18:50.716Z,2.03
2022-09-06T13:21:29.606Z,2.10
2022-09-06T13:23:59.195Z,2.22
2022-09-06T13:26:33.221Z,2.17
2022-09-06T13:29:22.309Z,2.30
2022-09-06T13:31:53.782Z,2.58
2022-09-06T13:34:22.474Z,2.47
2022-09-06T13:36:50.883Z,2.00
2022-09-06T13:39:38.220Z,2.60
2022-09-06T13:42:09.739Z,2.38
2022-09-06T13:44:38.045Z,2.15
2022-09-06T13:47:05.534Z,2.25
2022-09-06T13:49:33.214Z,2.15
2022-09-06T13:52:02.040Z,2.35
2022-09-06T13:54:29.595Z,2.28
2022-09-06T13:56:57.183Z,2.70
2022-09-06T13:59:24.750Z,3.40
2022-09-06T14:02:20.844Z,2.60
2022-09-06T14:04:48.068Z,2.72
2022-09-06T14:07:15.317Z,2.53
2022-09-06T14:09:42.536Z,2.15
2022-09-06T14:12:10.276Z,2.63
2022-09-06T14:14:37.435Z,2.60
2022-09-06T14:17:05.152Z,2.92
2022-09-06T14:19:32.764Z,2.50
2022-09-06T14:21:59.926Z,2.67
2022-09-06T14:24:27.159Z,2.67
2022-09-06T14:26:54.305Z,2.72
2022-09-06T14:29:21.472Z,2.85
2022-09-06T14:31:49.008Z,3.05
2022-09-06T14:34:16.793Z,2.75
2022-09-06T14:36:43.929Z,2.55
2022-09-06T14:39:11.045Z,2.50
2022-09-06T14:41:38.182Z,2.70
2022-09-06T14:44:05.455Z,2.45
2022-09-06T14:46:32.675Z,2.58
2022-09-06T14:49:01.718Z,2.38
2022-09-06T14:51:29.397Z,2.83
2022-09-06T14:53:57.960Z,2.65
2022-09-06T14:56:26.012Z,2.42
2022-09-06T14:58:57.305Z,2.75
2022-09-06T15:01:26.293Z,2.92
2022-09-06T15:03:55.660Z,2.50
2022-09-06T15:06:24.442Z,3.00
2022-09-06T15:08:54.639Z,3.00
2022-09-06T15:11:30.316Z,2.60
2022-09-06T15:13:58.467Z,2.42
2022-09-06T15:16:25.661Z,2.53
2022-09-06T15:18:52.939Z,2.58
2022-09-06T15:21:20.317Z,2.30
2022-09-06T15:23:47.508Z,2.25
2022-09-06T15:26:15.601Z,2.63
2022-09-06T15:28:44.488Z,2.90
2022-09-06T15:31:12.270Z,3.10
2022-09-06T15:33:40.554Z,3.10
2022-09-06T15:36:08.675Z,3.10
2022-09-06T15:38:37.032Z,3.20
2022-09-06T15:41:08.416Z,2.83
2022-09-06T15:43:36.643Z,3.25
2022-09-06T15:46:04.055Z,2.85
2022-09-06T15:48:40.358Z,3.47
2022-09-06T15:51:07.500Z,3.97
2022-09-06T15:53:34.674Z,3.38
2022-09-06T15:56:02.741Z,3.10
2022-09-06T15:58:30.568Z,3.60
2022-09-06T16:01:21.151Z,3.67
2022-09-06T16:03:53.377Z,4.47
2022-09-06T16:08:53.289Z,3.58
2022-09-06T16:11:21.934Z,3.88
2022-09-06T16:13:49.560Z,3.63
2022-09-06T16:16:17.354Z,3.83
2022-09-06T16:18:45.700Z,3.75
2022-09-06T16:21:17.481Z,4.25
2022-09-06T16:23:49.309Z,3.92
2022-09-06T16:26:20.725Z,4.10
2022-09-06T16:28:49.472Z,4.60
2022-09-06T16:31:16.903Z,5.13
2022-09-06T16:33:45.608Z,4.13
2022-09-06T16:36:14.155Z,3.85
2022-09-06T16:38:43.251Z,4.40
2022-09-06T16:41:15.727Z,3.90
2022-09-06T16:43:43.165Z,4.10
2022-09-06T16:46:10.977Z,4.00
2022-09-06T16:48:40.556Z,5.00
2022-09-06T16:51:12.043Z,4.70
2022-09-06T16:53:40.531Z,4.95
2022-09-06T16:56:17.799Z,4.10
2022-09-06T16:58:49.458Z,4.85
2022-09-06T17:01:16.814Z,5.18
2022-09-06T17:03:44.106Z,4.70
2022-09-06T17:06:11.397Z,4.20
2022-09-06T17:08:39.237Z,4.20
2022-09-06T17:11:07.915Z,5.28
2022-09-06T17:13:35.219Z,5.10
2022-09-06T17:16:22.399Z,5.25
2022-09-06T17:18:49.983Z,5.85
2022-09-06T17:21:17.205Z,4.90
2022-09-06T17:23:44.495Z,5.32
2022-09-06T17:26:11.667Z,6.15
2022-09-06T17:28:40.697Z,5.97
2022-09-06T17:31:09.211Z,6.00
2022-09-06T17:33:37.072Z,5.65
2022-09-06T17:36:07.953Z,5.88
2022-09-06T17:38:35.346Z,5.82
2022-09-06T17:41:03.007Z,6.75
2022-09-06T17:43:30.320Z,6.63
2022-09-06T17:45:57.758Z,6.90
2022-09-06T17:48:25.245Z,7.38
2022-09-06T17:50:53.742Z,6.97
2022-09-06T17:53:20.897Z,6.47
2022-09-06T17:55:52.238Z,7.43
2022-09-06T17:58:20.134Z,7.07
2022-09-06T18:00:47.388Z,7.18
2022-09-06T18:03:14.666Z,7.53
2022-09-06T18:05:43.811Z,7.60
2022-09-06T18:08:11.493Z,7.10
2022-09-06T18:10:39.168Z,7.75
2022-09-06T18:13:06.457Z,8.38
2022-09-06T18:15:39.256Z,7.35
2022-09-06T18:18:06.477Z,8.53
2022-09-06T18:20:33.674Z,8.30
2022-09-06T18:23:00.925Z,7.63
2022-09-06T18:25:29.251Z,8.48
2022-09-06T18:27:56.415Z,8.98
2022-09-06T18:30:23.644Z,8.55
2022-09-06T18:32:50.912Z,9.48
2022-09-06T18:35:18.168Z,9.07
2022-09-06T18:37:45.356Z,9.55
2022-09-06T18:40:12.706Z,8.95
2022-09-06T18:42:43.534Z,9.48
2022-09-06T18:45:11.446Z,8.93
2022-09-06T18:47:38.666Z,9.20
2022-09-06T18:50:06.558Z,10.10
2022-09-06T18:52:34.056Z,9.73
2022-09-06T18:55:01.293Z,9.50
2022-09-06T18:57:30.638Z,10.18
2022-09-06T18:59:58.187Z,9.50
2022-09-06T19:02:27.565Z,10.10
2022-09-06T19:04:56.076Z,10.00
2022-09-06T19:07:23.256Z,9.60
2022-09-06T19:09:50.601Z,9.38
2022-09-06T19:12:17.914Z,9.65
2022-09-06T19:14:45.091Z,9.68
2022-09-06T19:17:12.305Z,9.95
2022-09-06T19:19:39.492Z,9.70
2022-09-06T19:22:06.704Z,9.23
2022-09-06T19:24:33.905Z,9.65
2022-09-06T19:27:01.084Z,9.65
2022-09-06T19:29:28.580Z,10.10
2022-09-06T19:31:55.744Z,10.32
2022-09-06T19:34:22.938Z,10.23
2022-09-06T19:36:52.064Z,9.98
2022-09-06T19:39:19.499Z,10.40
2022-09-06T19:41:47.558Z,12.98
2022-09-06T19:44:16.094Z,10.77
2022-09-06T19:46:45.953Z,11.18
2022-09-06T19:49:13.542Z,11.20
2022-09-06T19:51:40.734Z,11.15
2022-09-06T19:54:07.971Z,11.20
2022-09-06T19:56:36.431Z,10.38
2022-09-06T19:59:05.090Z,11.23
2022-09-06T20:01:33.175Z,11.98
2022-09-06T20:04:02.405Z,11.38
2022-09-06T20:06:29.970Z,11.70
2022-09-06T20:08:58.033Z,11.07
2022-09-06T20:11:27.305Z,11.38
2022-09-06T20:13:54.553Z,11.90
2022-09-06T20:16:21.773Z,12.13
2022-09-06T20:18:49.086Z,11.82
2022-09-06T20:21:18.462Z,11.85
2022-09-06T20:23:49.477Z,12.80
2022-09-06T20:26:16.660Z,12.35
2022-09-06T20:28:44.139Z,11.55
2022-09-06T20:31:12.736Z,11.77
2022-09-06T20:33:39.976Z,11.48
2022-09-06T20:36:08.272Z,11.02
2022-09-06T20:38:37.224Z,11.52
2022-09-06T20:41:05.556Z,12.45
2022-09-06T20:43:34.461Z,12.20
2022-09-06T20:46:04.286Z,12.63
2022-09-06T20:48:32.731Z,12.13
2022-09-06T20:51:01.797Z,12.82
2022-09-06T20:53:31.986Z,13.32
2022-09-06T20:56:10.703Z,12.90
2022-09-06T20:58:38.078Z,13.43
2022-09-06T21:01:12.598Z,12.65
2022-09-06T21:03:41.157Z,13.10
2022-09-06T21:06:09.181Z,12.98
2022-09-06T21:08:40.640Z,13.30
2022-09-06T21:11:09.932Z,12.60
2022-09-06T21:13:37.338Z,13.75
2022-09-06T21:16:05.077Z,12.75
2022-09-06T21:18:35.095Z,13.20
2022-09-06T21:21:03.296Z,12.90
2022-09-06T21:23:31.051Z,12.93
2022-09-06T21:26:02.346Z,14.20
2022-09-06T21:28:30.340Z,13.10
2022-09-06T21:31:08.512Z,13.90
2022-09-06T21:33:43.179Z,14.57
2022-09-06T21:36:11.908Z,14.32
2022-09-06T21:38:43.775Z,13.35
2022-09-06T21:41:11.347Z,13.07
2022-09-06T21:43:38.924Z,12.93
2022-09-06T21:46:07.328Z,13.30
2022-09-06T21:48:38.383Z,14.23
2022-09-06T21:51:08.037Z,14.32
2022-09-06T21:53:35.788Z,16.25
2022-09-06T21:56:03.658Z,15.48
2022-09-06T21:58:31.185Z,15.15
2022-09-06T22:00:59.318Z,15.48
2022-09-06T22:03:30.762Z,14.20
2022-09-06T22:05:58.047Z,15.63
2022-09-06T22:08:26.158Z,15.30
2022-09-06T22:10:53.370Z,14.57
2022-09-06T22:13:20.920Z,14.70
2022-09-06T22:15:48.066Z,14.02
2022-09-06T22:18:15.251Z,14.13
2022-09-06T22:20:42.444Z,14.07
2022-09-06T22:23:10.043Z,14.65
2022-09-06T22:25:37.217Z,15.00
2022-09-06T22:28:04.316Z,14.93
2022-09-06T22:30:31.587Z,14.60
2022-09-06T22:32:58.749Z,16.05
2022-09-06T22:35:25.835Z,14.13
2022-09-06T22:37:52.919Z,15.18
2022-09-06T22:40:20.000Z,14.65
2022-09-06T22:42:47.172Z,15.13
2022-09-06T22:45:14.224Z,13.73
2022-09-06T22:47:41.336Z,14.95
2022-09-06T22:50:08.798Z,13.23
2022-09-06T22:52:35.971Z,13.60
2022-09-06T22:55:03.175Z,13.25
2022-09-06T22:57:30.498Z,13.15
2022-09-06T22:59:58.028Z,13.95
2022-09-06T23:02:25.110Z,12.73
2022-09-06T23:04:52.339Z,13.82
2022-09-06T23:07:19.555Z,13.77
2022-09-06T23:09:46.708Z,12.73
2022-09-06T23:12:13.812Z,14.65
2022-09-06T23:14:40.878Z,12.90
2022-09-06T23:17:07.977Z,12.70
2022-09-06T23:19:35.054Z,15.52
2022-09-06T23:22:02.216Z,12.85
2022-09-06T23:24:29.380Z,12.48
2022-09-06T23:26:57.087Z,12.23
2022-09-06T23:29:24.202Z,13.10
2022-09-06T23:31:51.409Z,11.73
2022-09-06T23:34:18.547Z,12.55
2022-09-06T23:36:45.704Z,13.20
2022-09-06T23:39:12.922Z,11.70
2022-09-06T23:41:40.159Z,12.30
2022-09-06T23:44:07.389Z,12.18
2022-09-06T23:46:34.752Z,11.60
2022-09-06T23:49:01.950Z,11.80
2022-09-06T23:51:29.184Z,12.95
2022-09-06T23:53:56.410Z,12.40
2022-09-06T23:56:23.559Z,13.40
2022-09-06T23:58:50.672Z,12.70
